createdAt,value
2023-03-17T00:04:59.258Z,97186.16
2023-03-17T00:10:27.032Z,97184.56
2023-03-17T00:15:54.954Z,97177.91
2023-03-17T00:21:22.621Z,97183.13
2023-03-17T00:26:43.659Z,97184.88
2023-03-17T00:32:05.100Z,97179.88
2023-03-17T00:37:25.843Z,97170.34
2023-03-17T00:42:46.518Z,97168.00
2023-03-17T00:48:21.831Z,97170.50
2023-03-17T00:53:43.218Z,97149.09
2023-03-17T00:59:05.047Z,97144.00
2023-03-17T01:04:26.108Z,97121.19
2023-03-17T01:09:46.693Z,97124.91
2023-03-17T01:15:07.841Z,97123.16
2023-03-17T01:20:32.066Z,97117.94
2023-03-17T01:25:52.882Z,97110.13
2023-03-17T01:31:13.655Z,97108.56
2023-03-17T01:36:34.477Z,97106.06
2023-03-17T01:42:00.400Z,97101.81
2023-03-17T01:47:24.579Z,97095.84
2023-03-17T01:52:45.783Z,97075.34
2023-03-17T01:58:07.411Z,97071.13
2023-03-17T02:03:29.881Z,97059.25
2023-03-17T02:08:50.919Z,97037.78
2023-03-17T02:14:12.365Z,97038.00
2023-03-17T02:19:35.322Z,97046.72
2023-03-17T02:24:59.510Z,97037.25
2023-03-17T02:30:24.246Z,97037.25
2023-03-17T02:35:44.978Z,97033.63
2023-03-17T02:41:07.268Z,97020.00
2023-03-17T02:46:28.640Z,97009.97
2023-03-17T02:51:53.436Z,97013.44
2023-03-17T02:57:14.187Z,97012.69
2023-03-17T03:02:34.810Z,97021.06
2023-03-17T03:07:55.681Z,97009.88
2023-03-17T03:13:16.854Z,96998.09
2023-03-17T03:18:37.860Z,97009.06
2023-03-17T03:23:58.629Z,97009.06
2023-03-17T03:29:19.689Z,97014.47
2023-03-17T03:34:40.585Z,97019.66
2023-03-17T03:40:01.479Z,96997.69
2023-03-17T03:45:22.407Z,97000.00
2023-03-17T03:50:43.265Z,97000.44
2023-03-17T03:56:04.393Z,96986.66
2023-03-17T04:01:25.419Z,96987.34
2023-03-17T04:06:46.402Z,97001.84
2023-03-17T04:12:08.326Z,96996.28
2023-03-17T04:17:29.316Z,97009.97
2023-03-17T04:22:50.043Z,97011.22
2023-03-17T04:28:12.248Z,97015.13
2023-03-17T04:33:33.581Z,97000.97
2023-03-17T04:38:54.355Z,97011.97
2023-03-17T04:44:15.081Z,97015.84
2023-03-17T04:49:35.608Z,97012.47
2023-03-17T04:54:56.548Z,97014.06
2023-03-17T05:00:18.237Z,97006.16
2023-03-17T05:05:38.914Z,97000.84
2023-03-17T05:10:59.433Z,96999.09
2023-03-17T05:16:20.227Z,96988.38
2023-03-17T05:21:41.517Z,96996.63
2023-03-17T05:27:02.182Z,96998.25
2023-03-17T05:32:23.207Z,97011.59
2023-03-17T05:37:44.753Z,97012.81
2023-03-17T05:43:06.236Z,97005.63
2023-03-17T05:48:27.082Z,97000.19
2023-03-17T05:53:47.853Z,96998.94
2023-03-17T05:59:09.489Z,96997.38
2023-03-17T06:04:30.202Z,96988.03
2023-03-17T06:09:50.793Z,97001.03
2023-03-17T06:15:11.564Z,96998.22
2023-03-17T06:20:33.458Z,96984.63
2023-03-17T06:25:54.431Z,96974.00
2023-03-17T06:31:15.633Z,96966.88
2023-03-17T06:36:38.613Z,96977.97
2023-03-17T06:41:59.145Z,96998.81
2023-03-17T06:47:20.199Z,97010.97
2023-03-17T06:52:41.348Z,97019.28
2023-03-17T06:58:03.139Z,97020.94
2023-03-17T07:03:25.561Z,97017.06
2023-03-17T07:08:47.601Z,97020.69
2023-03-17T07:14:09.065Z,97026.84
2023-03-17T07:19:31.318Z,97017.09
2023-03-17T07:24:52.674Z,97004.00
2023-03-17T07:30:15.020Z,96981.50
2023-03-17T07:35:36.308Z,97001.69
2023-03-17T07:40:56.866Z,97008.03
2023-03-17T07:46:17.663Z,96990.31
2023-03-17T07:51:38.837Z,96991.31
2023-03-17T07:56:59.538Z,96993.31
2023-03-17T08:02:21.158Z,96997.13
2023-03-17T08:07:41.905Z,96990.22
2023-03-17T08:13:02.646Z,96991.91
2023-03-17T08:18:23.736Z,96985.56
2023-03-17T08:23:44.727Z,96985.06
2023-03-17T08:29:05.562Z,96984.25
2023-03-17T08:34:26.426Z,96978.47
2023-03-17T08:39:47.274Z,96982.09
2023-03-17T08:45:09.980Z,96971.56
2023-03-17T08:50:31.345Z,96962.03
2023-03-17T08:55:55.513Z,96978.75
2023-03-17T09:01:17.044Z,96993.28
2023-03-17T09:06:39.739Z,96997.19
2023-03-17T09:12:06.321Z,96987.59
2023-03-17T09:17:27.660Z,96976.28
2023-03-17T09:22:49.187Z,96971.88
2023-03-17T09:28:12.147Z,96946.72
2023-03-17T09:33:33.284Z,96935.78
2023-03-17T09:38:54.149Z,96946.47
2023-03-17T09:44:28.803Z,96961.56
2023-03-17T09:49:58.624Z,96944.63
2023-03-17T09:55:28.206Z,96933.31
2023-03-17T10:00:49.263Z,96930.75
2023-03-17T10:06:39.262Z,96923.53
2023-03-17T10:12:11.159Z,96924.47
2023-03-17T10:17:36.743Z,96916.56
2023-03-17T10:23:04.815Z,96910.16
2023-03-17T10:28:35.773Z,96911.63
2023-03-17T10:33:59.072Z,96909.47
2023-03-17T10:39:22.389Z,96901.88
2023-03-17T10:44:52.479Z,96896.88
2023-03-17T10:50:16.850Z,96886.41
2023-03-17T10:55:44.735Z,96886.47
2023-03-17T11:01:15.315Z,96879.47
2023-03-17T11:06:43.911Z,96872.66
2023-03-17T11:12:32.842Z,96859.97
2023-03-17T11:18:03.497Z,96860.31
2023-03-17T11:23:50.290Z,96853.25
2023-03-17T11:29:33.218Z,96846.56
2023-03-17T11:35:21.976Z,96844.41
2023-03-17T11:41:10.888Z,96843.19
2023-03-17T11:46:46.659Z,96833.03
2023-03-17T11:52:29.352Z,96822.88
2023-03-17T11:58:01.481Z,96819.06
2023-03-17T12:03:40.272Z,96817.56
2023-03-17T12:09:30.863Z,96818.91
2023-03-17T12:14:54.096Z,96809.47
2023-03-17T12:20:28.021Z,96803.19
2023-03-17T12:25:57.721Z,96801.34
2023-03-17T12:31:25.224Z,96804.59
2023-03-17T12:36:46.118Z,96791.72
2023-03-17T12:42:22.102Z,96799.63
2023-03-17T12:47:50.479Z,96796.59
2023-03-17T12:53:33.703Z,96799.28
2023-03-17T12:59:06.828Z,96796.13
2023-03-17T13:04:32.967Z,96789.78
2023-03-17T13:09:53.598Z,96775.50
2023-03-17T13:15:48.924Z,96780.94
2023-03-17T13:21:13.876Z,96755.59
2023-03-17T13:26:55.420Z,96740.38
2023-03-17T13:32:17.085Z,96734.88
2023-03-17T13:38:08.729Z,96728.31
2023-03-17T13:43:56.924Z,96734.03
2023-03-17T13:49:24.225Z,96743.16
2023-03-17T13:54:59.692Z,96734.50
2023-03-17T14:00:24.487Z,96728.09
2023-03-17T14:05:51.636Z,96723.69
2023-03-17T14:11:32.357Z,96712.56
2023-03-17T14:17:00.534Z,96708.91
2023-03-17T14:22:24.661Z,96695.34
2023-03-17T14:27:51.016Z,96702.28
2023-03-17T14:33:12.034Z,96703.47
2023-03-17T14:38:35.379Z,96696.09
2023-03-17T14:44:00.687Z,96691.66
2023-03-17T14:49:23.185Z,96698.53
2023-03-17T14:54:44.476Z,96690.69
2023-03-17T15:00:46.868Z,96684.94
2023-03-17T15:06:13.389Z,96682.47
2023-03-17T15:11:41.646Z,96680.31
2023-03-17T15:17:05.233Z,96669.66
2023-03-17T15:22:30.760Z,96685.75
2023-03-17T15:27:52.438Z,96675.44
2023-03-17T15:33:28.783Z,96663.00
2023-03-17T15:38:49.545Z,96664.16
2023-03-17T15:44:10.314Z,96664.34
2023-03-17T15:49:31.106Z,96657.25
2023-03-17T15:54:57.141Z,96656.47
2023-03-17T16:00:22.885Z,96652.28
2023-03-17T16:05:43.636Z,96661.94
2023-03-17T16:11:04.201Z,96659.50
2023-03-17T16:16:35.022Z,96656.50
2023-03-17T16:21:56.389Z,96655.13
2023-03-17T16:27:17.473Z,96648.59
2023-03-17T16:32:38.191Z,96647.94
2023-03-17T16:37:58.882Z,96643.69
2023-03-17T16:43:25.139Z,96661.38
2023-03-17T16:48:48.346Z,96662.91
2023-03-17T16:54:10.376Z,96663.31
2023-03-17T16:59:31.710Z,96663.28
2023-03-17T17:04:52.636Z,96668.47
2023-03-17T17:10:15.557Z,96671.06
2023-03-17T17:15:37.689Z,96674.88
2023-03-17T17:20:58.420Z,96677.44
2023-03-17T17:26:18.978Z,96670.72
2023-03-17T17:31:39.978Z,96660.53
2023-03-17T17:37:00.971Z,96668.28
2023-03-17T17:42:21.728Z,96667.41
2023-03-17T17:47:42.819Z,96675.25
2023-03-17T17:53:05.719Z,96667.53
2023-03-17T17:58:26.727Z,96668.31
2023-03-17T18:03:47.696Z,96669.75
2023-03-17T18:09:09.658Z,96679.03
2023-03-17T18:14:31.092Z,96672.91
2023-03-17T18:19:55.643Z,96683.13
2023-03-17T18:25:17.452Z,96676.19
2023-03-17T18:30:38.545Z,96680.38
2023-03-17T18:36:00.209Z,96667.91
2023-03-17T18:41:20.988Z,96659.66
2023-03-17T18:46:41.785Z,96661.22
2023-03-17T18:52:02.515Z,96653.34
2023-03-17T18:57:23.273Z,96650.56
2023-03-17T19:02:44.111Z,96648.69
2023-03-17T19:08:05.662Z,96645.75
2023-03-17T19:13:27.344Z,96648.84
2023-03-17T19:18:47.887Z,96639.06
2023-03-17T19:24:10.705Z,96629.88
2023-03-17T19:29:33.926Z,96626.00
2023-03-17T19:34:55.001Z,96636.16
2023-03-17T19:40:16.182Z,96644.97
2023-03-17T19:45:37.074Z,96643.22
2023-03-17T19:50:57.817Z,96651.81
2023-03-17T19:56:19.052Z,96649.22
2023-03-17T20:01:40.233Z,96650.16
2023-03-17T20:07:01.124Z,96650.88
2023-03-17T20:12:22.029Z,96649.34
2023-03-17T20:17:43.363Z,96650.75
2023-03-17T20:23:04.052Z,96655.13
2023-03-17T20:28:25.301Z,96647.22
2023-03-17T20:33:46.156Z,96650.28
2023-03-17T20:39:06.913Z,96650.63
2023-03-17T20:44:27.721Z,96655.91
2023-03-17T20:49:48.838Z,96655.19
2023-03-17T20:55:14.046Z,96644.09
2023-03-17T21:00:35.557Z,96654.13
2023-03-17T21:05:56.420Z,96649.56
2023-03-17T21:11:20.331Z,96652.97
2023-03-17T21:16:45.718Z,96645.31
2023-03-17T21:22:06.892Z,96652.63
2023-03-17T21:27:27.708Z,96655.59
2023-03-17T21:32:48.533Z,96650.75
2023-03-17T21:38:09.417Z,96645.31
2023-03-17T21:43:30.524Z,96640.66
2023-03-17T21:48:52.222Z,96647.38
2023-03-17T21:54:14.273Z,96639.72
2023-03-17T21:59:35.811Z,96648.78
2023-03-17T22:04:56.901Z,96654.22
2023-03-17T22:10:18.109Z,96652.13
2023-03-17T22:15:38.744Z,96664.88
2023-03-17T22:20:59.893Z,96658.03
2023-03-17T22:26:21.952Z,96662.28
2023-03-17T22:31:43.277Z,96656.66
2023-03-17T22:37:04.614Z,96665.38
2023-03-17T22:42:25.588Z,96657.25
2023-03-17T22:47:46.569Z,96652.28
2023-03-17T22:53:07.850Z,96663.97
2023-03-17T22:58:29.073Z,96655.38
2023-03-17T23:03:50.615Z,96660.44
2023-03-17T23:09:11.320Z,96652.53
2023-03-17T23:14:32.077Z,96647.84
2023-03-17T23:19:53.029Z,96646.41
2023-03-17T23:25:13.765Z,96644.63
2023-03-17T23:30:35.797Z,96652.41
2023-03-17T23:35:57.256Z,96648.28
2023-03-17T23:41:18.660Z,96645.84
2023-03-17T23:46:39.374Z,96650.88
2023-03-17T23:52:00.050Z,96652.44
2023-03-17T23:57:21.025Z,96645.94
